createdAt,value
2019-05-14T00:01:23.609Z,103926.12
2019-05-14T00:06:26.602Z,103917.96
2019-05-14T00:11:28.581Z,103919.60
2019-05-14T00:16:31.549Z,103904.56
2019-05-14T00:21:33.632Z,103899.33
2019-05-14T00:26:36.757Z,103899.99
2019-05-14T00:31:38.741Z,103897.37
2019-05-14T00:36:41.826Z,103902.30
2019-05-14T00:41:44.075Z,103895.72
2019-05-14T00:46:47.145Z,103896.02
2019-05-14T00:51:49.104Z,103888.04
2019-05-14T00:56:52.124Z,103886.99
2019-05-14T01:01:57.255Z,103876.36
2019-05-14T01:07:01.775Z,103892.23
2019-05-14T01:12:03.863Z,103891.24
2019-05-14T01:17:05.753Z,103895.09
2019-05-14T01:22:07.800Z,103897.80
2019-05-14T01:27:12.562Z,103887.30
2019-05-14T01:32:15.011Z,103893.67
2019-05-14T01:37:17.108Z,103893.67
2019-05-14T01:42:21.477Z,103895.72
2019-05-14T01:47:22.905Z,103895.72
2019-05-14T01:52:27.491Z,103894.67
2019-05-14T01:57:31.179Z,103895.92
2019-05-14T02:02:33.274Z,103898.13
2019-05-14T02:07:35.228Z,103897.01
2019-05-14T02:12:37.743Z,103884.34
2019-05-14T02:17:41.370Z,103884.31
2019-05-14T02:22:43.871Z,103893.07
2019-05-14T02:27:49.241Z,103885.05
2019-05-14T02:32:51.185Z,103885.05
2019-05-14T02:37:53.162Z,103880.86
2019-05-14T02:42:55.212Z,103868.48
2019-05-14T02:48:00.163Z,103862.06
2019-05-14T02:53:01.304Z,103854.80
2019-05-14T02:58:05.755Z,103849.56
2019-05-14T03:03:09.859Z,103851.88
2019-05-14T03:08:11.824Z,103841.72
2019-05-14T03:13:20.288Z,103849.89
2019-05-14T03:18:24.850Z,103852.25
2019-05-14T03:23:30.396Z,103840.95
2019-05-14T03:28:39.445Z,103849.29
2019-05-14T03:33:44.369Z,103844.34
2019-05-14T03:38:50.305Z,103841.67
2019-05-14T03:43:52.472Z,103839.20
2019-05-14T03:48:54.400Z,103839.05
2019-05-14T03:54:05.664Z,103840.50
2019-05-14T03:59:00.692Z,103847.91
2019-05-14T04:04:03.380Z,103833.42
2019-05-14T04:09:09.442Z,103833.02
2019-05-14T04:14:24.440Z,103838.62
2019-05-14T04:19:30.912Z,103819.41
2019-05-14T04:24:38.170Z,103809.29
2019-05-14T04:29:40.954Z,103807.36
2019-05-14T04:34:46.038Z,103805.58
2019-05-14T04:39:50.444Z,103809.16
2019-05-14T04:44:51.896Z,103808.34
2019-05-14T04:49:53.793Z,103810.03
2019-05-14T04:54:59.187Z,103804.88
2019-05-14T05:00:00.142Z,103811.98
2019-05-14T05:05:02.218Z,103802.45
2019-05-14T05:10:04.628Z,103797.82
2019-05-14T05:15:09.422Z,103796.02
2019-05-14T05:20:11.404Z,103796.02
2019-05-14T05:25:13.460Z,103796.42
2019-05-14T05:30:16.095Z,103795.35
2019-05-14T05:35:19.812Z,103801.33
2019-05-14T05:40:21.828Z,103802.95
2019-05-14T05:45:23.886Z,103806.91
2019-05-14T05:50:28.739Z,103797.32
2019-05-14T05:55:33.209Z,103787.77
2019-05-14T06:00:42.734Z,103783.33
2019-05-14T06:05:44.768Z,103787.05
2019-05-14T06:10:48.968Z,103785.79
2019-05-14T06:15:52.225Z,103795.48
2019-05-14T06:20:54.313Z,103794.16
2019-05-14T06:25:59.407Z,103799.23
2019-05-14T06:31:00.135Z,103801.55
2019-05-14T06:36:05.067Z,103798.12
2019-05-14T06:41:09.328Z,103797.64
2019-05-14T06:46:13.914Z,103801.64
2019-05-14T06:51:15.833Z,103805.55
2019-05-14T06:56:28.269Z,103800.96
2019-05-14T07:01:32.373Z,103794.08
2019-05-14T07:06:34.594Z,103793.80
2019-05-14T07:11:38.878Z,103789.97
2019-05-14T07:21:58.321Z,103789.55
2019-05-14T07:27:02.014Z,103782.09
2019-05-14T07:32:03.839Z,103784.04
2019-05-14T07:37:06.157Z,103789.58
2019-05-14T07:42:10.537Z,103783.70
2019-05-14T07:47:12.503Z,103792.05
2019-05-14T07:52:14.464Z,103781.36
2019-05-14T07:57:18.938Z,103775.41
2019-05-14T08:02:22.657Z,103771.31
2019-05-14T08:07:24.638Z,103770.84
2019-05-14T08:12:28.393Z,103783.19
2019-05-14T08:17:30.196Z,103767.24
2019-05-14T08:22:35.309Z,103754.91
2019-05-14T08:27:39.707Z,103751.69
2019-05-14T08:38:07.616Z,103727.52
2019-05-14T08:43:05.988Z,103722.00
2019-05-14T08:48:09.207Z,103712.06
2019-05-14T08:53:11.177Z,103700.00
2019-05-14T08:58:14.145Z,103706.09
2019-05-14T09:03:19.048Z,103699.83
2019-05-14T09:08:22.336Z,103693.28
2019-05-14T09:13:28.986Z,103699.70
2019-05-14T09:18:31.114Z,103702.17
2019-05-14T09:23:33.290Z,103700.02
2019-05-14T09:28:35.177Z,103693.95
2019-05-14T09:33:39.028Z,103691.51
2019-05-14T09:38:42.840Z,103694.22
2019-05-14T09:43:44.955Z,103696.55
2019-05-14T09:48:48.680Z,103688.45
2019-05-14T09:53:50.837Z,103682.81
2019-05-14T09:58:52.741Z,103670.50
2019-05-14T10:03:55.667Z,103660.31
2019-05-14T10:08:59.105Z,103642.20
2019-05-14T10:14:01.401Z,103639.73
2019-05-14T10:19:04.835Z,103623.00
2019-05-14T10:24:09.297Z,103617.37
2019-05-14T10:29:12.360Z,103613.20
2019-05-14T10:34:14.284Z,103610.10
2019-05-14T10:39:18.975Z,103607.16
2019-05-14T10:44:20.241Z,103602.39
2019-05-14T10:49:24.919Z,103599.70
2019-05-14T10:54:29.258Z,103604.57
2019-05-14T10:59:30.679Z,103584.55
2019-05-14T11:04:38.733Z,103579.59
2019-05-14T11:09:40.687Z,103570.77
2019-05-14T11:14:43.919Z,103571.48
2019-05-14T11:19:47.944Z,103564.63
2019-05-14T11:24:49.859Z,103552.52
2019-05-14T11:29:51.882Z,103539.52
2019-05-14T11:34:53.711Z,103533.92
2019-05-14T11:39:57.956Z,103531.95
2019-05-14T11:44:59.725Z,103535.73
2019-05-14T11:50:03.374Z,103524.87
2019-05-14T11:55:05.844Z,103520.37
2019-05-14T12:00:09.269Z,103513.39
2019-05-14T12:05:11.585Z,103516.43
2019-05-14T12:10:14.163Z,103502.87
2019-05-14T12:15:18.913Z,103482.43
2019-05-14T12:20:23.788Z,103479.52
2019-05-14T12:25:25.975Z,103480.23
2019-05-14T12:30:28.619Z,103463.95
2019-05-14T12:35:31.061Z,103454.05
2019-05-14T12:40:34.688Z,103443.74
2019-05-14T12:45:39.390Z,103442.06
2019-05-14T12:50:43.401Z,103456.84
2019-05-14T12:55:48.693Z,103444.61
2019-05-14T13:00:50.878Z,103424.67
2019-05-14T13:05:52.977Z,103415.86
2019-05-14T13:10:55.098Z,103428.38
2019-05-14T13:15:57.194Z,103412.38
2019-05-14T13:20:59.092Z,103420.28
2019-05-14T13:26:01.445Z,103399.45
2019-05-14T13:31:03.356Z,103393.16
2019-05-14T13:36:05.254Z,103391.38
2019-05-14T13:41:08.638Z,103386.89
2019-05-14T13:46:14.801Z,103386.91
2019-05-14T13:51:15.029Z,103367.31
2019-05-14T13:56:19.782Z,103362.19
2019-05-14T14:01:23.814Z,103347.41
2019-05-14T14:06:27.472Z,103343.14
2019-05-14T14:11:31.465Z,103341.48
2019-05-14T14:16:33.249Z,103333.23
2019-05-14T14:21:40.210Z,103339.39
2019-05-14T14:26:42.859Z,103333.98
2019-05-14T14:31:44.761Z,103329.39
2019-05-14T14:36:54.855Z,103341.64
2019-05-14T14:41:54.977Z,103341.52
2019-05-14T14:46:57.863Z,103321.41
2019-05-14T14:51:59.698Z,103326.65
2019-05-14T14:57:08.429Z,103298.95
2019-05-14T15:02:11.731Z,103307.71
2019-05-14T15:07:15.787Z,103291.20
2019-05-14T15:12:20.010Z,103281.35
2019-05-14T15:17:24.880Z,103275.80
2019-05-14T15:22:31.021Z,103272.53
2019-05-14T15:27:33.706Z,103270.82
2019-05-14T15:32:35.900Z,103253.91
2019-05-14T15:37:42.262Z,103258.97
2019-05-14T15:42:42.025Z,103256.34
2019-05-14T15:47:48.159Z,103247.62
2019-05-14T15:52:49.770Z,103252.78
2019-05-14T15:57:52.069Z,103242.64
2019-05-14T16:02:53.976Z,103249.97
2019-05-14T16:07:55.881Z,103247.66
2019-05-14T16:12:59.553Z,103235.73
2019-05-14T16:18:09.495Z,103222.00
2019-05-14T16:23:10.576Z,103218.95
2019-05-14T16:28:11.844Z,103205.44
2019-05-14T16:33:18.373Z,103205.49
2019-05-14T16:38:23.178Z,103208.72
2019-05-14T16:43:29.482Z,103209.64
2019-05-14T16:48:29.424Z,103211.74
2019-05-14T16:53:34.424Z,103199.84
2019-05-14T16:58:38.620Z,103201.08
2019-05-14T17:03:41.571Z,103200.81
2019-05-14T17:08:49.760Z,103187.22
2019-05-14T17:13:51.955Z,103187.12
2019-05-14T17:18:53.947Z,103183.13
2019-05-14T17:23:58.111Z,103177.73
2019-05-14T17:28:59.934Z,103176.09
2019-05-14T17:34:02.112Z,103175.09
2019-05-14T17:39:08.477Z,103171.74
2019-05-14T17:44:10.236Z,103170.00
2019-05-14T17:49:12.077Z,103162.23
2019-05-14T17:54:14.015Z,103170.13
2019-05-14T17:59:18.725Z,103167.50
2019-05-14T18:04:24.219Z,103157.16
2019-05-14T18:09:26.181Z,103158.80
2019-05-14T18:14:29.552Z,103156.17
2019-05-14T18:19:32.984Z,103150.48
2019-05-14T18:24:39.283Z,103148.77
2019-05-14T18:29:41.214Z,103142.70
2019-05-14T18:34:48.477Z,103146.65
2019-05-14T18:39:52.262Z,103139.89
2019-05-14T18:44:59.015Z,103135.88
2019-05-14T18:50:03.021Z,103131.30
2019-05-14T18:55:08.347Z,103133.64
2019-05-14T19:00:09.809Z,103123.73
2019-05-14T19:05:11.807Z,103127.91
2019-05-14T19:10:13.829Z,103137.82
2019-05-14T19:15:18.566Z,103137.33
2019-05-14T19:20:22.229Z,103141.84
2019-05-14T19:25:24.344Z,103147.67
2019-05-14T19:30:28.468Z,103148.85
2019-05-14T19:35:30.142Z,103155.64
2019-05-14T19:40:32.097Z,103153.25
2019-05-14T19:45:38.767Z,103153.70
2019-05-14T19:50:40.571Z,103153.52
2019-05-14T19:55:42.715Z,103155.78
2019-05-14T20:00:44.604Z,103164.62
2019-05-14T20:05:46.564Z,103164.36
2019-05-14T20:10:49.010Z,103168.70
2019-05-14T20:15:55.170Z,103163.08
2019-05-14T20:20:59.150Z,103167.98
2019-05-14T20:26:01.153Z,103173.41
2019-05-14T20:31:05.103Z,103169.55
2019-05-14T20:36:09.443Z,103171.48
2019-05-14T20:41:13.305Z,103167.28
2019-05-14T20:46:18.340Z,103165.97
2019-05-14T20:51:22.489Z,103165.28
2019-05-14T20:56:25.620Z,103171.07
2019-05-14T21:01:29.170Z,103160.45
2019-05-14T21:06:31.726Z,103171.64
2019-05-14T21:11:35.138Z,103174.36
2019-05-14T21:16:39.306Z,103168.39
2019-05-14T21:21:42.235Z,103172.13
2019-05-14T21:26:44.638Z,103159.70
2019-05-14T21:31:47.658Z,103166.23
2019-05-14T21:36:49.775Z,103153.17
2019-05-14T21:41:58.456Z,103157.95
2019-05-14T21:47:00.487Z,103156.56
2019-05-14T21:52:02.486Z,103159.89
2019-05-14T21:57:04.786Z,103157.09
2019-05-14T22:02:07.375Z,103148.53
2019-05-14T22:07:09.664Z,103152.64
2019-05-14T22:12:13.268Z,103148.09
2019-05-14T22:17:15.338Z,103151.95
2019-05-14T22:22:18.648Z,103140.31
2019-05-14T22:27:23.620Z,103135.13
2019-05-14T22:32:28.589Z,103136.97
2019-05-14T22:37:30.909Z,103130.27
2019-05-14T22:42:32.975Z,103136.35
2019-05-14T22:47:40.098Z,103135.41
2019-05-14T22:52:43.973Z,103132.86
2019-05-14T22:57:47.863Z,103139.00
2019-05-14T23:02:49.773Z,103131.83
2019-05-14T23:07:52.916Z,103140.44
2019-05-14T23:12:58.513Z,103128.83
2019-05-14T23:18:00.655Z,103137.41
2019-05-14T23:23:02.913Z,103132.83
2019-05-14T23:28:08.471Z,103134.53
2019-05-14T23:33:13.997Z,103132.82
2019-05-14T23:38:18.826Z,103120.20
2019-05-14T23:43:19.992Z,103120.20
2019-05-14T23:48:22.038Z,103119.75
2019-05-14T23:53:29.078Z,103127.47
2019-05-14T23:58:30.854Z,103119.28
